Pagrindinis puslapis
METAR-TAF:

METAR-TAF

Oro uostai :

Florø, Norvegija

platuma: 61-35N, ilguma: 005-02E, Aukštis: 0 m

Dabartinis oras

Ataskaita buvo paskelbta 45 minutes, ne 04:20 UTC
Vėjas 6 kt iš Pietų
Temperatūra 14°C
Drėgmė 77%
Slėgis 1000 hPa
Matomumas 10 km arba daugiau

METAR: ENFL 160420Z AUTO 17006KT 9999NDV OVC070/// 14/10 Q1000

Laikas: 07:05 (05:05 UTC)

Prognozė

Ataskaita buvo paskelbta 3 valandos ir 5 minutes, ne 02:00 UTC
Prognozė galioja nuo 16 metu 03 UTC su 16 metu 12 UTC
Vėjas 8 kt iš Rytų
Matomumas 10 km arba daugiau
Mažai debesys ne aukštis 5000 ft
Su prošvaistėmis ne aukštis 8000 ft
Laikinai
nuo 16 metu 03 UTC su 16 metu 12 UTC
Vėjas 12 kt iš Pietų/Pietryčių
Su prošvaistėmis ne aukštis 3000 ft, Liūtiniai kamuoliniai debesys.
lietus,

TAF: ENFL 160200Z 1603/1612 08008KT 9999 FEW050 BKN080 TEMPO 1603/1612 15012KT SHRA BKN030CB

Orai ataskaitas ir orų prognozės (METAR, TAF).

turimą stotys yra geltonos ir raudonos taškus žemėlapyje.

Perkelti pele per norėdami pamatyti stoties vardą.

Tada spustelėkite, norėdami matyti oro stebėjimo ir prognozės.

Norėdami pakeisti žemėlapį: spustelėkite ant žalios mygtukų su juodo kryžiaus žemyn,; žalią mygtuką su brūkšneliu, jei norite nutolinti; arba žalių rodyklių gretimoms žemėlapius.


METAR-TAF: